Agios Rafail — SY4304 — position and weather

sailwx.info

Track history (hours):
 
Tides and Currents Weather Stations Pressure Air Temp Water Temp Dewpoint Dewpoint Depression Visibility Wind Speed Wind Dir Waves Ship Positions

Agios Rafail

Last reported at 2018-Jun-19 10:30 UTC. Time now 2018-Jun-19 10:39 UTC.
Position N 40°47' E 024°43'.

Length 80 m; draft 2.4 m.

Type: Passenger vessel. MMSI: 237740500.

Date/timePositionNaut miles runAvg speedWind from/ knotsBaromVisibWave heightAir tempDewpointWater temp
2018-Jun-19 10:30N 40°47' E 024°43'1 2.8
2018-Jun-19 10:00N 40°48' E 024°42'3 6.8
2018-Jun-19 09:30N 40°51' E 024°42'0 0.1
2018-Jun-19 09:00N 40°51' E 024°42'3 5.1
2018-Jun-19 08:30N 40°49' E 024°42'2 4.0
2018-Jun-19 07:58N 40°47' E 024°42'0 0.5
2018-Jun-19 07:30N 40°47' E 024°43'0 0.0
2018-Jun-19 07:00N 40°47' E 024°43'0 0.0
2018-Jun-19 06:27N 40°47' E 024°43'0 0.0
2018-Jun-19 06:00N 40°47' E 024°43'0 0.0
2018-Jun-19 05:30N 40°47' E 024°43'0 0.0
2018-Jun-19 05:00N 40°47' E 024°43'1 2.7
2018-Jun-19 04:30N 40°48' E 024°42'3 6.8
2018-Jun-19 04:00N 40°51' E 024°42'0 0.0
2018-Jun-19 03:30N 40°51' E 024°42'1 1.9
2018-Jun-19 03:00N 40°51' E 024°41'5 9.2
2018-Jun-19 02:30N 40°47' E 024°42'0 0.0
2018-Jun-19 01:59N 40°47' E 024°42'0 0.0
2018-Jun-18 16:58N 40°47' E 024°42'0 0.0
2018-Jun-18 16:28N 40°47' E 024°42'1 3.1
2018-Jun-18 16:01N 40°48' E 024°41'3 6.6
2018-Jun-18 15:30N 40°51' E 024°42'0 0.0
2018-Jun-18 14:59N 40°51' E 024°42'2 5.1
2018-Jun-18 14:30N 40°49' E 024°42'2 4.6
2018-Jun-18 14:00N 40°47' E 024°42'0 0.0
2018-Jun-18 13:30N 40°47' E 024°42'0 0.0
2018-Jun-18 13:00N 40°47' E 024°42'1 2.6
2018-Jun-18 12:31N 40°48' E 024°42'3 6.9
2018-Jun-18 12:01N 40°51' E 024°42'0 0.0
2018-Jun-18 11:31N 40°51' E 024°42'3 5.1
2018-Jun-18 11:00N 40°49' E 024°41'2 4.2
2018-Jun-18 10:29N 40°47' E 024°42'0 0.0
2018-Jun-18 09:59N 40°47' E 024°42'1 2.9
2018-Jun-18 09:30N 40°48' E 024°42'3 6.4
2018-Jun-18 09:00N 40°51' E 024°42'0 0.0
2018-Jun-18 08:30N 40°51' E 024°42'3 5.3
2018-Jun-18 08:00N 40°49' E 024°42'2 4.3
2018-Jun-18 07:30N 40°47' E 024°42'2 4.6
2018-Jun-18 07:00N 40°49' E 024°41'2 4.9
2018-Jun-18 06:30N 40°51' E 024°42'0 0.0
2018-Jun-17 15:34N 40°51' E 024°42'0 0.0
2018-Jun-17 15:30N 40°51' E 024°42'2 4.0
2018-Jun-17 15:00N 40°49' E 024°41'2 3.2
2018-Jun-17 14:30N 40°48' E 024°42'4 7.2
2018-Jun-17 14:00N 40°51' E 024°42'0 0.0
2018-Jun-17 13:30N 40°51' E 024°42'3 5.1
2018-Jun-17 13:00N 40°49' E 024°41'2 4.0
2018-Jun-17 12:27N 40°47' E 024°42'0 0.0
2018-Jun-17 11:54N 40°47' E 024°42'1 3.8
2018-Jun-17 11:30N 40°48' E 024°42'3 6.6
2018-Jun-17 11:00N 40°51' E 024°42'0 0.0
2018-Jun-17 10:30N 40°51' E 024°42'3 5.1
2018-Jun-17 10:00N 40°49' E 024°41'2 4.3
2018-Jun-17 09:30N 40°47' E 024°42'0 0.0
2018-Jun-17 08:59N 40°47' E 024°42'0 0.0
2018-Jun-17 08:30N 40°47' E 024°42'0 0.0
2018-Jun-17 08:00N 40°47' E 024°42'0 0.0
2018-Jun-17 07:29N 40°47' E 024°42'0 0.0
2018-Jun-17 07:00N 40°47' E 024°42'0 0.0
2018-Jun-17 06:30N 40°47' E 024°42'0 0.0
2018-Jun-17 05:59N 40°47' E 024°42'0 0.0
2018-Jun-17 05:29N 40°47' E 024°42'1 2.9
2018-Jun-17 05:00N 40°48' E 024°42'3 6.6
2018-Jun-17 04:30N 40°51' E 024°42'0 0.0
2018-Jun-17 04:00N 40°51' E 024°42'2 5.0
2018-Jun-17 03:30N 40°49' E 024°42'2 4.3
2018-Jun-17 02:59N 40°47' E 024°42'0 0.0
2018-Jun-16 20:47N 40°47' E 024°42'0 0.0
2018-Jun-16 20:29N 40°47' E 024°42'0 0.0
2018-Jun-16 19:59N 40°47' E 024°42'0 0.0
2018-Jun-16 19:29N 40°47' E 024°42'0 0.0
2018-Jun-16 16:48N 40°47' E 024°42'0 0.0
2018-Jun-16 16:30N 40°47' E 024°42'1 2.7
2018-Jun-16 16:00N 40°48' E 024°42'3 6.4
2018-Jun-16 15:28N 40°51' E 024°42'0 0.0
2018-Jun-16 14:58N 40°51' E 024°42'2 5.3
2018-Jun-16 14:30N 40°49' E 024°41'2 4.3
2018-Jun-16 13:58N 40°47' E 024°42'0 0.0
2018-Jun-16 13:28N 40°47' E 024°42'0 0.0
2018-Jun-16 12:58N 40°47' E 024°42'1 3.1
2018-Jun-16 12:30N 40°48' E 024°42'3 6.5
2018-Jun-16 12:00N 40°51' E 024°42'0 0.0
2018-Jun-16 11:29N 40°51' E 024°42'3 5.2
2018-Jun-16 11:00N 40°49' E 024°42'2 4.1
2018-Jun-16 10:28N 40°47' E 024°42'0 0.5
2018-Jun-16 09:57N 40°47' E 024°43'0 0.0
2018-Jun-16 09:27N 40°47' E 024°43'0 0.0
2018-Jun-16 09:00N 40°47' E 024°43'0 0.1
2018-Jun-16 08:30N 40°47' E 024°42'1 2.9
2018-Jun-16 08:00N 40°48' E 024°42'3 6.5
2018-Jun-16 07:30N 40°51' E 024°42'0 0.0
2018-Jun-16 07:00N 40°51' E 024°42'3 5.1
2018-Jun-16 06:30N 40°49' E 024°42'2 4.3
2018-Jun-16 06:00N 40°47' E 024°42'1 2.6
2018-Jun-16 05:29N 40°48' E 024°42'3 7.0
2018-Jun-16 05:00N 40°51' E 024°42'0 0.0
2018-Jun-16 04:27N 40°51' E 024°42'2 5.5
2018-Jun-16 04:00N 40°49' E 024°42'2 4.5
2018-Jun-16 03:31N 40°47' E 024°42'0 0.5
2018-Jun-16 02:58N 40°47' E 024°43'0 0.0
2018-Jun-15 13:31N 40°47' E 024°43'0 0.1
2018-Jun-15 13:28N 40°47' E 024°43'0 0.0
2018-Jun-15 13:00N 40°47' E 024°43'2 3.4
2018-Jun-15 12:30N 40°48' E 024°41'3 6.3
2018-Jun-15 12:00N 40°51' E 024°42'0 0.0
2018-Jun-15 11:31N 40°51' E 024°42'3 5.1
2018-Jun-15 11:00N 40°49' E 024°41'2 4.3
2018-Jun-15 10:29N 40°47' E 024°42'0 0.0
2018-Jun-15 09:59N 40°47' E 024°42'2 3.2
2018-Jun-15 09:30N 40°48' E 024°41'3 6.6
2018-Jun-15 09:00N 40°51' E 024°42'0 0.0
2018-Jun-15 08:30N 40°51' E 024°42'2 5.0
2018-Jun-15 08:00N 40°49' E 024°41'2 4.3
2018-Jun-15 07:29N 40°47' E 024°42'0 0.5
2018-Jun-15 07:01N 40°47' E 024°43'0 0.0
2018-Jun-15 06:25N 40°47' E 024°43'0 0.0
2018-Jun-15 05:57N 40°47' E 024°43'0 0.0
2018-Jun-15 05:30N 40°47' E 024°43'2 3.0
2018-Jun-15 05:00N 40°48' E 024°42'3 6.7
2018-Jun-15 04:30N 40°51' E 024°42'0 0.0
2018-Jun-15 04:00N 40°51' E 024°42'2 4.8
2018-Jun-15 03:30N 40°49' E 024°42'2 4.4
2018-Jun-15 02:59N 40°47' E 024°42'0 0.0
2018-Jun-14 13:37N 40°47' E 024°43'0 0.0
2018-Jun-14 13:28N 40°47' E 024°43'2 3.4
2018-Jun-14 13:00N 40°48' E 024°42'3 6.4
2018-Jun-14 12:30N 40°51' E 024°42'0 0.0
2018-Jun-14 12:00N 40°51' E 024°42'2 4.9
2018-Jun-14 11:30N 40°49' E 024°42'2 4.7
2018-Jun-14 11:00N 40°47' E 024°42'2 3.5
2018-Jun-14 10:30N 40°49' E 024°42'3 5.9
2018-Jun-14 10:00N 40°51' E 024°42'0 0.0
2018-Jun-14 09:30N 40°51' E 024°42'2 4.7
2018-Jun-14 09:00N 40°49' E 024°42'2 4.4
2018-Jun-14 08:28N 40°47' E 024°42'0 0.0
2018-Jun-14 07:58N 40°47' E 024°42'2 3.7
2018-Jun-14 07:30N 40°48' E 024°42'3 5.9
2018-Jun-14 06:59N 40°51' E 024°42'0 0.0
2018-Jun-14 06:31N 40°51' E 024°42'2 4.7
2018-Jun-14 06:00N 40°49' E 024°42'2 4.8
2018-Jun-14 05:30N 40°47' E 024°42'3 6.6
2018-Jun-14 05:00N 40°48' E 024°38'4 7.2
2018-Jun-14 04:30N 40°46' E 024°35'0 0.0
2018-Jun-13 11:43N 40°46' E 024°35'0 1.7
2018-Jun-13 11:30N 40°46' E 024°35'4 8.8
2018-Jun-13 11:00N 40°48' E 024°40'1 2.6
2018-Jun-13 10:30N 40°48' E 024°42'3 6.4
2018-Jun-13 10:00N 40°51' E 024°42'0 0.0
2018-Jun-13 09:30N 40°51' E 024°42'2 5.0
2018-Jun-13 09:00N 40°49' E 024°41'2 4.5
2018-Jun-13 08:30N 40°47' E 024°42'0 0.0
2018-Jun-13 08:00N 40°47' E 024°42'0 0.0
2018-Jun-13 07:30N 40°47' E 024°42'1 2.9
2018-Jun-13 07:00N 40°48' E 024°41'3 6.7
2018-Jun-13 06:30N 40°51' E 024°42'0 0.0
2018-Jun-13 06:00N 40°51' E 024°42'3 5.2
2018-Jun-13 05:30N 40°49' E 024°41'2 4.2
2018-Jun-13 04:59N 40°47' E 024°42'0 0.0
2018-Jun-13 04:29N 40°47' E 024°42'1 2.7
2018-Jun-13 04:00N 40°48' E 024°42'3 6.9
2018-Jun-13 03:30N 40°51' E 024°42'0 0.0
2018-Jun-12 20:54N 40°51' E 024°42'1 2.4
2018-Jun-12 20:30N 40°51' E 024°41'5 9.3
2018-Jun-12 20:00N 40°47' E 024°42'0 0.0
2018-Jun-12 19:29N 40°47' E 024°42'0 0.0
2018-Jun-12 18:59N 40°47' E 024°42'1 2.6
2018-Jun-12 18:31N 40°48' E 024°42'3 6.8
2018-Jun-12 18:00N 40°51' E 024°42'1 1.8
2018-Jun-12 17:31N 40°51' E 024°41'5 9.5
2018-Jun-12 17:00N 40°47' E 024°42'1 1.2
2018-Jun-12 16:31N 40°47' E 024°42'4 8.6
2018-Jun-12 16:01N 40°52' E 024°42'1 0.0
2018-Jun-11 10:12N 40°51' E 024°42'0 0.1
2018-Jun-11 10:00N 40°51' E 024°42'4 7.2
2018-Jun-11 09:30N 40°48' E 024°42'1 1.3
2018-Jun-11 09:00N 40°48' E 024°42'3 6.4
2018-Jun-11 08:30N 40°51' E 024°42'0 0.0
2018-Jun-11 08:00N 40°51' E 024°42'3 5.2
2018-Jun-11 07:30N 40°49' E 024°42'2 4.3
2018-Jun-11 07:00N 40°47' E 024°42'1 3.0
2018-Jun-11 06:30N 40°48' E 024°42'3 6.5
2018-Jun-11 06:00N 40°51' E 024°42'0 0.0
2018-Jun-11 05:30N 40°51' E 024°42'3 5.3
2018-Jun-11 05:00N 40°49' E 024°42'2 4.2
2018-Jun-11 04:30N 40°47' E 024°42'0 0.5
2018-Jun-11 04:00N 40°47' E 024°43'0 0.0
2018-Jun-11 03:31N 40°47' E 024°43'0 0.5
2018-Jun-11 03:00N 40°47' E 024°42'4 7.7
2018-Jun-11 02:30N 40°51' E 024°41'1 1.7
2018-Jun-11 01:48N 40°51' E 024°42'0 0.0
2018-Jun-10 19:17N 40°51' E 024°42'1 3.5
2018-Jun-10 19:00N 40°51' E 024°41'5 9.4
2018-Jun-10 18:30N 40°47' E 024°42'1 2.4
2018-Jun-10 18:00N 40°48' E 024°42'3 7.0
2018-Jun-10 17:30N 40°51' E 024°42'0 0.0
2018-Jun-10 17:00N 40°51' E 024°42'2 4.8
2018-Jun-10 16:30N 40°49' E 024°42'2 4.6
2018-Jun-10 16:00N 40°47' E 024°42'0 0.0
2018-Jun-10 15:30N 40°47' E 024°42'2 3.1
2018-Jun-10 15:00N 40°48' E 024°41'3 3.3
2018-Jun-10 14:00N 40°51' E 024°42'2 4.9
2018-Jun-10 13:30N 40°49' E 024°42'2 4.3
2018-Jun-10 12:58N 40°47' E 024°42'3 6.0
2018-Jun-10 12:30N 40°49' E 024°41'2 4.0
2018-Jun-10 12:00N 40°51' E 024°42'0 0.0
2018-Jun-09 19:01N 40°51' E 024°42'0 0.0
2018-Jun-09 18:58N 40°51' E 024°42'2 3.7
2018-Jun-09 18:31N 40°50' E 024°41'2 4.2
2018-Jun-09 18:01N 40°48' E 024°42'4 7.4
2018-Jun-09 17:30N 40°51' E 024°42'0 0.0
2018-Jun-09 17:00N 40°51' E 024°42'2 5.1
2018-Jun-09 16:31N 40°49' E 024°41'2 3.3
2018-Jun-09 15:49N 40°47' E 024°42'0 0.0
2018-Jun-09 14:58N 40°47' E 024°42'2 3.3
2018-Jun-09 14:30N 40°48' E 024°41'3 6.4
2018-Jun-09 14:00N 40°51' E 024°42'0 0.0
2018-Jun-09 13:30N 40°51' E 024°42'2 4.8
2018-Jun-09 13:00N 40°49' E 024°41'2 4.6
2018-Jun-09 12:29N 40°47' E 024°42'0 0.0
2018-Jun-09 11:59N 40°47' E 024°42'2 3.5
2018-Jun-09 11:30N 40°48' E 024°41'3 6.3
2018-Jun-09 11:00N 40°51' E 024°42'0 0.0
2018-Jun-09 10:30N 40°51' E 024°42'  
Track history (hours):
 
Tides and Currents Weather Stations Pressure Air Temp Water Temp Dewpoint Dewpoint Depression Visibility Wind Speed Wind Dir Waves Ship Positions

Agios Rafail

Last reported at 2018-Jun-19 10:30 UTC. Time now 2018-Jun-19 10:39 UTC.
Position N 40°47' E 024°43'.

Length 80 m; draft 2.4 m.

Type: Passenger vessel. MMSI: 237740500.

Date/timePositionNaut miles runAvg speedWind from/ knotsBaromVisibWave heightAir tempDewpointWater temp
2018-Jun-19 10:30N 40°47' E 024°43'1 2.8
2018-Jun-19 10:00N 40°48' E 024°42'3 6.8
2018-Jun-19 09:30N 40°51' E 024°42'0 0.1
2018-Jun-19 09:00N 40°51' E 024°42'3 5.1
2018-Jun-19 08:30N 40°49' E 024°42'2 4.0
2018-Jun-19 07:58N 40°47' E 024°42'0 0.5
2018-Jun-19 07:30N 40°47' E 024°43'0 0.0
2018-Jun-19 07:00N 40°47' E 024°43'0 0.0
2018-Jun-19 06:27N 40°47' E 024°43'0 0.0
2018-Jun-19 06:00N 40°47' E 024°43'0 0.0
2018-Jun-19 05:30N 40°47' E 024°43'0 0.0
2018-Jun-19 05:00N 40°47' E 024°43'1 2.7
2018-Jun-19 04:30N 40°48' E 024°42'3 6.8
2018-Jun-19 04:00N 40°51' E 024°42'0 0.0
2018-Jun-19 03:30N 40°51' E 024°42'1 1.9
2018-Jun-19 03:00N 40°51' E 024°41'5 9.2
2018-Jun-19 02:30N 40°47' E 024°42'0 0.0
2018-Jun-19 01:59N 40°47' E 024°42'0 0.0
2018-Jun-18 16:58N 40°47' E 024°42'0 0.0
2018-Jun-18 16:28N 40°47' E 024°42'1 3.1
2018-Jun-18 16:01N 40°48' E 024°41'3 6.6
2018-Jun-18 15:30N 40°51' E 024°42'0 0.0
2018-Jun-18 14:59N 40°51' E 024°42'2 5.1
2018-Jun-18 14:30N 40°49' E 024°42'2 4.6
2018-Jun-18 14:00N 40°47' E 024°42'0 0.0
2018-Jun-18 13:30N 40°47' E 024°42'0 0.0
2018-Jun-18 13:00N 40°47' E 024°42'1 2.6
2018-Jun-18 12:31N 40°48' E 024°42'3 6.9
2018-Jun-18 12:01N 40°51' E 024°42'0 0.0
2018-Jun-18 11:31N 40°51' E 024°42'3 5.1
2018-Jun-18 11:00N 40°49' E 024°41'2 4.2
2018-Jun-18 10:29N 40°47' E 024°42'0 0.0
2018-Jun-18 09:59N 40°47' E 024°42'1 2.9
2018-Jun-18 09:30N 40°48' E 024°42'3 6.4
2018-Jun-18 09:00N 40°51' E 024°42'0 0.0
2018-Jun-18 08:30N 40°51' E 024°42'3 5.3
2018-Jun-18 08:00N 40°49' E 024°42'2 4.3
2018-Jun-18 07:30N 40°47' E 024°42'2 4.6
2018-Jun-18 07:00N 40°49' E 024°41'2 4.9
2018-Jun-18 06:30N 40°51' E 024°42'0 0.0
2018-Jun-17 15:34N 40°51' E 024°42'0 0.0
2018-Jun-17 15:30N 40°51' E 024°42'2 4.0
2018-Jun-17 15:00N 40°49' E 024°41'2 3.2
2018-Jun-17 14:30N 40°48' E 024°42'4 7.2
2018-Jun-17 14:00N 40°51' E 024°42'0 0.0
2018-Jun-17 13:30N 40°51' E 024°42'3 5.1
2018-Jun-17 13:00N 40°49' E 024°41'2 4.0
2018-Jun-17 12:27N 40°47' E 024°42'0 0.0
2018-Jun-17 11:54N 40°47' E 024°42'1 3.8
2018-Jun-17 11:30N 40°48' E 024°42'3 6.6
2018-Jun-17 11:00N 40°51' E 024°42'0 0.0
2018-Jun-17 10:30N 40°51' E 024°42'3 5.1
2018-Jun-17 10:00N 40°49' E 024°41'2 4.3
2018-Jun-17 09:30N 40°47' E 024°42'0 0.0
2018-Jun-17 08:59N 40°47' E 024°42'0 0.0
2018-Jun-17 08:30N 40°47' E 024°42'0 0.0
2018-Jun-17 08:00N 40°47' E 024°42'0 0.0
2018-Jun-17 07:29N 40°47' E 024°42'0 0.0
2018-Jun-17 07:00N 40°47' E 024°42'0 0.0
2018-Jun-17 06:30N 40°47' E 024°42'0 0.0
2018-Jun-17 05:59N 40°47' E 024°42'0 0.0
2018-Jun-17 05:29N 40°47' E 024°42'1 2.9
2018-Jun-17 05:00N 40°48' E 024°42'3 6.6
2018-Jun-17 04:30N 40°51' E 024°42'0 0.0
2018-Jun-17 04:00N 40°51' E 024°42'2 5.0
2018-Jun-17 03:30N 40°49' E 024°42'2 4.3
2018-Jun-17 02:59N 40°47' E 024°42'0 0.0
2018-Jun-16 20:47N 40°47' E 024°42'0 0.0
2018-Jun-16 20:29N 40°47' E 024°42'0 0.0
2018-Jun-16 19:59N 40°47' E 024°42'0 0.0
2018-Jun-16 19:29N 40°47' E 024°42'0 0.0
2018-Jun-16 16:48N 40°47' E 024°42'0 0.0
2018-Jun-16 16:30N 40°47' E 024°42'1 2.7
2018-Jun-16 16:00N 40°48' E 024°42'3 6.4
2018-Jun-16 15:28N 40°51' E 024°42'0 0.0
2018-Jun-16 14:58N 40°51' E 024°42'2 5.3
2018-Jun-16 14:30N 40°49' E 024°41'2 4.3
2018-Jun-16 13:58N 40°47' E 024°42'0 0.0
2018-Jun-16 13:28N 40°47' E 024°42'0 0.0
2018-Jun-16 12:58N 40°47' E 024°42'1 3.1
2018-Jun-16 12:30N 40°48' E 024°42'3 6.5
2018-Jun-16 12:00N 40°51' E 024°42'0 0.0
2018-Jun-16 11:29N 40°51' E 024°42'3 5.2
2018-Jun-16 11:00N 40°49' E 024°42'2 4.1
2018-Jun-16 10:28N 40°47' E 024°42'0 0.5
2018-Jun-16 09:57N 40°47' E 024°43'0 0.0
2018-Jun-16 09:27N 40°47' E 024°43'0 0.0
2018-Jun-16 09:00N 40°47' E 024°43'0 0.1
2018-Jun-16 08:30N 40°47' E 024°42'1 2.9
2018-Jun-16 08:00N 40°48' E 024°42'3 6.5
2018-Jun-16 07:30N 40°51' E 024°42'0 0.0
2018-Jun-16 07:00N 40°51' E 024°42'3 5.1
2018-Jun-16 06:30N 40°49' E 024°42'2 4.3
2018-Jun-16 06:00N 40°47' E 024°42'1 2.6
2018-Jun-16 05:29N 40°48' E 024°42'3 7.0
2018-Jun-16 05:00N 40°51' E 024°42'0 0.0
2018-Jun-16 04:27N 40°51' E 024°42'2 5.5
2018-Jun-16 04:00N 40°49' E 024°42'2 4.5
2018-Jun-16 03:31N 40°47' E 024°42'0 0.5
2018-Jun-16 02:58N 40°47' E 024°43'0 0.0
2018-Jun-15 13:31N 40°47' E 024°43'0 0.1
2018-Jun-15 13:28N 40°47' E 024°43'0 0.0
2018-Jun-15 13:00N 40°47' E 024°43'2 3.4
2018-Jun-15 12:30N 40°48' E 024°41'3 6.3
2018-Jun-15 12:00N 40°51' E 024°42'0 0.0
2018-Jun-15 11:31N 40°51' E 024°42'3 5.1
2018-Jun-15 11:00N 40°49' E 024°41'2 4.3
2018-Jun-15 10:29N 40°47' E 024°42'0 0.0
2018-Jun-15 09:59N 40°47' E 024°42'2 3.2
2018-Jun-15 09:30N 40°48' E 024°41'3 6.6
2018-Jun-15 09:00N 40°51' E 024°42'0 0.0
2018-Jun-15 08:30N 40°51' E 024°42'2 5.0
2018-Jun-15 08:00N 40°49' E 024°41'2 4.3
2018-Jun-15 07:29N 40°47' E 024°42'0 0.5
2018-Jun-15 07:01N 40°47' E 024°43'0 0.0
2018-Jun-15 06:25N 40°47' E 024°43'0 0.0
2018-Jun-15 05:57N 40°47' E 024°43'0 0.0
2018-Jun-15 05:30N 40°47' E 024°43'2 3.0
2018-Jun-15 05:00N 40°48' E 024°42'3 6.7
2018-Jun-15 04:30N 40°51' E 024°42'0 0.0
2018-Jun-15 04:00N 40°51' E 024°42'2 4.8
2018-Jun-15 03:30N 40°49' E 024°42'2 4.4
2018-Jun-15 02:59N 40°47' E 024°42'0 0.0
2018-Jun-14 13:37N 40°47' E 024°43'0 0.0
2018-Jun-14 13:28N 40°47' E 024°43'2 3.4
2018-Jun-14 13:00N 40°48' E 024°42'3 6.4
2018-Jun-14 12:30N 40°51' E 024°42'0 0.0
2018-Jun-14 12:00N 40°51' E 024°42'2 4.9
2018-Jun-14 11:30N 40°49' E 024°42'2 4.7
2018-Jun-14 11:00N 40°47' E 024°42'2 3.5
2018-Jun-14 10:30N 40°49' E 024°42'3 5.9
2018-Jun-14 10:00N 40°51' E 024°42'0 0.0
2018-Jun-14 09:30N 40°51' E 024°42'2 4.7
2018-Jun-14 09:00N 40°49' E 024°42'2 4.4
2018-Jun-14 08:28N 40°47' E 024°42'0 0.0
2018-Jun-14 07:58N 40°47' E 024°42'2 3.7
2018-Jun-14 07:30N 40°48' E 024°42'3 5.9
2018-Jun-14 06:59N 40°51' E 024°42'0 0.0
2018-Jun-14 06:31N 40°51' E 024°42'2 4.7
2018-Jun-14 06:00N 40°49' E 024°42'2 4.8
2018-Jun-14 05:30N 40°47' E 024°42'3 6.6
2018-Jun-14 05:00N 40°48' E 024°38'4 7.2
2018-Jun-14 04:30N 40°46' E 024°35'0 0.0
2018-Jun-13 11:43N 40°46' E 024°35'0 1.7
2018-Jun-13 11:30N 40°46' E 024°35'4 8.8
2018-Jun-13 11:00N 40°48' E 024°40'1 2.6
2018-Jun-13 10:30N 40°48' E 024°42'3 6.4
2018-Jun-13 10:00N 40°51' E 024°42'0 0.0
2018-Jun-13 09:30N 40°51' E 024°42'2 5.0
2018-Jun-13 09:00N 40°49' E 024°41'2 4.5
2018-Jun-13 08:30N 40°47' E 024°42'0 0.0
2018-Jun-13 08:00N 40°47' E 024°42'0 0.0
2018-Jun-13 07:30N 40°47' E 024°42'1 2.9
2018-Jun-13 07:00N 40°48' E 024°41'3 6.7
2018-Jun-13 06:30N 40°51' E 024°42'0 0.0
2018-Jun-13 06:00N 40°51' E 024°42'3 5.2
2018-Jun-13 05:30N 40°49' E 024°41'2 4.2
2018-Jun-13 04:59N 40°47' E 024°42'0 0.0
2018-Jun-13 04:29N 40°47' E 024°42'1 2.7
2018-Jun-13 04:00N 40°48' E 024°42'3 6.9
2018-Jun-13 03:30N 40°51' E 024°42'0 0.0
2018-Jun-12 20:54N 40°51' E 024°42'1 2.4
2018-Jun-12 20:30N 40°51' E 024°41'5 9.3
2018-Jun-12 20:00N 40°47' E 024°42'0 0.0
2018-Jun-12 19:29N 40°47' E 024°42'0 0.0
2018-Jun-12 18:59N 40°47' E 024°42'1 2.6
2018-Jun-12 18:31N 40°48' E 024°42'3 6.8
2018-Jun-12 18:00N 40°51' E 024°42'1 1.8
2018-Jun-12 17:31N 40°51' E 024°41'5 9.5
2018-Jun-12 17:00N 40°47' E 024°42'1 1.2
2018-Jun-12 16:31N 40°47' E 024°42'4 8.6
2018-Jun-12 16:01N 40°52' E 024°42'1 0.0
2018-Jun-11 10:12N 40°51' E 024°42'0 0.1
2018-Jun-11 10:00N 40°51' E 024°42'4 7.2
2018-Jun-11 09:30N 40°48' E 024°42'1 1.3
2018-Jun-11 09:00N 40°48' E 024°42'3 6.4
2018-Jun-11 08:30N 40°51' E 024°42'0 0.0
2018-Jun-11 08:00N 40°51' E 024°42'3 5.2
2018-Jun-11 07:30N 40°49' E 024°42'2 4.3
2018-Jun-11 07:00N 40°47' E 024°42'1 3.0
2018-Jun-11 06:30N 40°48' E 024°42'3 6.5
2018-Jun-11 06:00N 40°51' E 024°42'0 0.0
2018-Jun-11 05:30N 40°51' E 024°42'3 5.3
2018-Jun-11 05:00N 40°49' E 024°42'2 4.2
2018-Jun-11 04:30N 40°47' E 024°42'0 0.5
2018-Jun-11 04:00N 40°47' E 024°43'0 0.0
2018-Jun-11 03:31N 40°47' E 024°43'0 0.5
2018-Jun-11 03:00N 40°47' E 024°42'4 7.7
2018-Jun-11 02:30N 40°51' E 024°41'1 1.7
2018-Jun-11 01:48N 40°51' E 024°42'0 0.0
2018-Jun-10 19:17N 40°51' E 024°42'1 3.5
2018-Jun-10 19:00N 40°51' E 024°41'5 9.4
2018-Jun-10 18:30N 40°47' E 024°42'1 2.4
2018-Jun-10 18:00N 40°48' E 024°42'3 7.0
2018-Jun-10 17:30N 40°51' E 024°42'0 0.0
2018-Jun-10 17:00N 40°51' E 024°42'2 4.8
2018-Jun-10 16:30N 40°49' E 024°42'2 4.6
2018-Jun-10 16:00N 40°47' E 024°42'0 0.0
2018-Jun-10 15:30N 40°47' E 024°42'2 3.1
2018-Jun-10 15:00N 40°48' E 024°41'3 3.3
2018-Jun-10 14:00N 40°51' E 024°42'2 4.9
2018-Jun-10 13:30N 40°49' E 024°42'2 4.3
2018-Jun-10 12:58N 40°47' E 024°42'3 6.0
2018-Jun-10 12:30N 40°49' E 024°41'2 4.0
2018-Jun-10 12:00N 40°51' E 024°42'0 0.0
2018-Jun-09 19:01N 40°51' E 024°42'0 0.0
2018-Jun-09 18:58N 40°51' E 024°42'2 3.7
2018-Jun-09 18:31N 40°50' E 024°41'2 4.2
2018-Jun-09 18:01N 40°48' E 024°42'4 7.4
2018-Jun-09 17:30N 40°51' E 024°42'0 0.0
2018-Jun-09 17:00N 40°51' E 024°42'2 5.1
2018-Jun-09 16:31N 40°49' E 024°41'2 3.3
2018-Jun-09 15:49N 40°47' E 024°42'0 0.0
2018-Jun-09 14:58N 40°47' E 024°42'2 3.3
2018-Jun-09 14:30N 40°48' E 024°41'3 6.4
2018-Jun-09 14:00N 40°51' E 024°42'0 0.0
2018-Jun-09 13:30N 40°51' E 024°42'2 4.8
2018-Jun-09 13:00N 40°49' E 024°41'2 4.6
2018-Jun-09 12:29N 40°47' E 024°42'0 0.0
2018-Jun-09 11:59N 40°47' E 024°42'2 3.5
2018-Jun-09 11:30N 40°48' E 024°41'3 6.3
2018-Jun-09 11:00N 40°51' E 024°42'0 0.0
2018-Jun-09 10:30N 40°51' E 024°42'  

Dump ship's entire track history